Time;durP1;ratioP1;P1;durP2;ratioP2;P2;SDS_P1;SDS_P2;PMS_P1;PMS_P2;Temp;Humidity;BMP_temperature;BMP_pressure;BME280_temperature;BME280_humidity;BME280_pressure;Samples;Min_cycle;Max_cycle;Signal;HPM_P1;HPM_P2
2022/05/25 00:01:37;;;;;;;5.40;4.45;;;;;;;16.16;92.92;98641.09;1759842;81;21060;-47
2022/05/25 00:04:05;;;;;;;5.92;4.83;;;;;;;16.16;93.18;98637.11;1748612;81;21063;-45
2022/05/25 00:06:31;;;;;;;5.25;4.30;;;;;;;16.11;93.46;98634.36;1758839;80;21037;-46
2022/05/25 00:08:58;;;;;;;6.80;4.45;;;;;;;16.16;92.50;98638.44;1755011;81;21208;-45
2022/05/25 00:11:23;;;;;;;5.55;3.92;;;;;;;16.14;93.12;98634.59;1753653;81;21045;-45
2022/05/25 00:13:50;;;;;;;4.97;4.00;;;;;;;16.15;92.43;98635.42;1750145;81;21526;-47
2022/05/25 00:16:17;;;;;;;4.72;4.12;;;;;;;16.13;93.35;98636.87;1757662;81;21114;-50
2022/05/25 00:21:26;;;;;;;5.00;3.55;;;;;;;16.08;93.22;98633.33;1758394;81;21113;-44
2022/05/25 00:23:52;;;;;;;4.80;3.52;;;;;;;16.08;92.47;98634.65;1763493;81;21077;-46
2022/05/25 00:26:18;;;;;;;5.12;3.95;;;;;;;16.08;92.65;98637.77;1757427;81;21055;-46
2022/05/25 00:28:44;;;;;;;5.17;4.10;;;;;;;16.07;93.46;98639.59;1750902;81;21105;-45
2022/05/25 00:31:10;;;;;;;6.55;3.40;;;;;;;16.09;93.17;98650.90;1754624;81;21082;-45
2022/05/25 00:33:36;;;;;;;4.45;3.52;;;;;;;16.10;93.69;98649.11;1752058;81;21022;-47
2022/05/25 00:36:02;;;;;;;4.87;3.47;;;;;;;16.07;92.89;98644.89;1746330;81;21025;-45
2022/05/25 00:38:28;;;;;;;4.25;3.72;;;;;;;16.05;93.90;98640.22;1757975;81;21082;-44
2022/05/25 00:40:53;;;;;;;5.58;3.40;;;;;;;16.06;93.41;98637.06;1758058;81;21037;-45
2022/05/25 00:43:19;;;;;;;3.90;3.47;;;;;;;16.06;93.52;98637.06;1746825;81;21069;-45
2022/05/25 00:45:50;;;;;;;7.55;3.22;;;;;;;16.07;93.25;98640.09;1746226;81;21045;-46
2022/05/25 00:48:43;;;;;;;4.28;3.17;;;;;;;16.06;93.74;98643.23;1752349;81;21473;-47
2022/05/25 00:51:14;;;;;;;5.58;3.42;;;;;;;16.02;94.56;98645.78;1747985;81;21396;-47
2022/05/25 00:53:57;;;;;;;4.33;3.35;;;;;;;16.04;94.38;98646.97;1753776;81;21058;-48
2022/05/25 00:56:26;;;;;;;3.85;3.35;;;;;;;16.06;93.32;98645.02;1751632;81;21038;-44
2022/05/25 00:59:06;;;;;;;4.28;3.77;;;;;;;16.08;93.66;98643.93;1756382;81;21002;-45
2022/05/25 01:01:31;;;;;;;4.10;3.47;;;;;;;16.08;93.18;98642.61;1751687;81;21098;-44
2022/05/25 01:03:57;;;;;;;4.47;3.70;;;;;;;16.07;93.61;98652.02;1757015;81;21535;-45
2022/05/25 01:06:29;;;;;;;3.70;3.35;;;;;;;16.07;93.77;98650.20;1756883;81;21044;-44
2022/05/25 01:09:03;;;;;;;4.83;3.95;;;;;;;16.09;93.25;98648.74;1749403;81;21420;-44
2022/05/25 01:12:08;;;;;;;4.72;3.98;;;;;;;16.11;93.19;98649.44;1747950;81;21085;-46
2022/05/25 01:15:14;;;;;;;5.03;4.50;;;;;;;16.10;93.55;98656.56;1758387;81;21056;-45
2022/05/25 01:17:54;;;;;;;4.42;4.00;;;;;;;16.14;93.02;98653.66;1752068;81;21114;-45
2022/05/25 01:20:43;;;;;;;7.85;4.28;;;;;;;16.09;92.93;98658.85;1763580;81;21077;-45
2022/05/25 01:23:42;;;;;;;5.35;4.60;;;;;;;16.08;93.84;98657.66;1686000;84;21282;-46
2022/05/25 01:26:57;;;;;;;4.87;4.37;;;;;;;16.06;94.48;98654.30;1686104;84;21039;-45
2022/05/25 01:29:41;;;;;;;5.22;4.72;;;;;;;16.05;93.91;98656.62;1681932;84;21097;-44
2022/05/25 01:32:35;;;;;;;4.97;4.10;;;;;;;16.06;93.26;98664.91;1621059;87;21111;-44
2022/05/25 01:35:06;;;;;;;6.67;4.33;;;;;;;16.06;92.95;98664.91;1620855;87;21063;-44
2022/05/25 01:37:56;;;;;;;7.30;4.60;;;;;;;16.04;93.24;98669.02;1636745;87;21296;-45
2022/05/25 01:40:49;;;;;;;5.17;4.55;;;;;;;16.06;92.88;98674.20;1630994;87;21063;-45
2022/05/25 01:43:29;;;;;;;5.47;4.87;;;;;;;16.03;93.64;98675.81;1633466;87;21712;-45
2022/05/25 01:46:06;;;;;;;5.28;4.80;;;;;;;16.01;93.48;98682.58;1607942;88;21714;-46
2022/05/25 01:48:37;;;;;;;8.25;5.45;;;;;;;15.99;93.68;98686.31;1599172;89;21083;-48
2022/05/25 01:51:11;;;;;;;9.10;5.40;;;;;;;15.98;94.30;98693.44;1600004;88;21089;-45
2022/05/25 01:53:45;;;;;;;7.00;5.72;;;;;;;15.98;93.95;98700.07;1599737;88;21246;-45
2022/05/25 01:56:14;;;;;;;7.60;5.65;;;;;;;15.94;94.33;98696.02;1611898;89;21078;-45
2022/05/25 01:58:44;;;;;;;10.43;5.50;;;;;;;15.92;94.29;98684.70;1607252;89;21109;-46
2022/05/25 02:01:12;;;;;;;8.23;5.75;;;;;;;15.90;94.54;98691.47;1659351;85;21075;-45
2022/05/25 02:07:16;;;;;;;7.90;5.65;;;;;;;15.87;94.41;98690.39;1590779;88;21100;-45
2022/05/25 02:09:59;;;;;;;9.05;6.22;;;;;;;15.89;94.11;98691.59;1600483;88;21588;-43
2022/05/25 02:13:00;;;;;;;9.85;6.08;;;;;;;15.86;94.00;98690.52;1605739;88;21139;-44
2022/05/25 02:15:40;;;;;;;8.60;6.53;;;;;;;15.83;95.65;98696.11;1589947;89;21615;-44
2022/05/25 02:18:14;;;;;;;14.18;6.85;;;;;;;15.79;95.41;98700.84;1608416;88;21118;-44
2022/05/25 02:20:54;;;;;;;8.25;6.87;;;;;;;15.75;94.50;98698.08;1604589;89;21079;-44
2022/05/25 02:23:59;;;;;;;8.88;6.83;;;;;;;15.72;95.42;98698.33;1609618;88;21134;-44
2022/05/25 02:26:43;;;;;;;9.23;6.92;;;;;;;15.72;94.53;98696.52;1610502;88;21142;-44
2022/05/25 02:29:14;;;;;;;16.17;7.78;;;;;;;15.67;97.03;98694.73;1582783;90;21086;-44
2022/05/25 02:31:58;;;;;;;12.45;7.62;;;;;;;15.69;97.11;98699.41;1592788;90;21156;-45
2022/05/25 02:34:27;;;;;;;9.88;7.90;;;;;;;15.70;96.77;98689.18;1588002;88;21277;-45
2022/05/25 02:36:56;;;;;;;8.55;7.42;;;;;;;15.71;95.96;98694.81;1578841;90;21088;-44
2022/05/25 02:39:23;;;;;;;9.98;8.05;;;;;;;15.71;96.37;98692.17;1609247;88;21105;-45
2022/05/25 02:41:53;;;;;;;10.85;7.75;;;;;;;15.72;96.70;98693.86;1637983;83;21543;-44
2022/05/25 02:44:20;;;;;;;9.43;7.50;;;;;;;15.76;95.61;98697.61;1695405;84;21085;-44
2022/05/25 02:46:47;;;;;;;11.47;8.37;;;;;;;15.74;95.11;98691.94;1684811;84;21591;-44
2022/05/25 02:49:14;;;;;;;11.90;8.25;;;;;;;15.70;96.90;98691.83;1718901;83;21033;-45
2022/05/25 02:51:40;;;;;;;14.05;8.90;;;;;;;15.71;96.68;98688.69;1695588;84;21082;-45
2022/05/25 02:54:07;;;;;;;9.70;8.70;;;;;;;15.73;96.10;98690.72;1705907;83;21509;-44
2022/05/25 02:56:34;;;;;;;10.58;9.25;;;;;;;15.71;96.24;98690.84;1704413;83;21050;-44
2022/05/25 02:59:00;;;;;;;12.35;9.03;;;;;;;15.72;96.96;98699.66;1696681;83;21069;-44
2022/05/25 03:01:27;;;;;;;14.00;8.73;;;;;;;15.72;96.06;98701.81;1687097;84;21217;-45
2022/05/25 03:03:53;;;;;;;11.10;9.95;;;;;;;15.69;96.75;98706.05;1696284;84;21550;-45
2022/05/25 03:06:19;;;;;;;12.28;9.55;;;;;;;15.68;96.86;98703.05;1708107;83;21344;-45
2022/05/25 03:08:46;;;;;;;10.82;9.28;;;;;;;15.70;96.83;98708.23;1692430;83;21037;-44
2022/05/25 03:11:11;;;;;;;13.53;10.35;;;;;;;15.72;96.16;98708.44;1697739;83;21099;-44
2022/05/25 03:13:38;;;;;;;13.90;10.00;;;;;;;15.72;95.92;98713.74;1702156;83;21179;-45
2022/05/25 03:16:07;;;;;;;14.40;10.43;;;;;;;15.75;95.57;98713.98;1729865;83;21043;-45
2022/05/25 03:18:34;;;;;;;13.85;11.00;;;;;;;15.74;96.07;98712.32;1728236;83;21090;-45
2022/05/25 03:21:00;;;;;;;17.65;10.70;;;;;;;15.72;96.26;98714.23;1725396;83;21518;-46
2022/05/25 03:23:26;;;;;;;15.83;11.25;;;;;;;15.71;95.62;98725.30;1728554;83;21004;-45
2022/05/25 03:25:52;;;;;;;14.78;10.68;;;;;;;15.71;96.65;98723.14;1709575;83;21014;-45
2022/05/25 03:28:19;;;;;;;14.83;11.28;;;;;;;15.69;99.15;98728.58;1724795;83;21008;-44
2022/05/25 03:30:47;;;;;;;16.90;12.87;;;;;;;15.76;97.26;98727.61;1724443;83;21032;-46
2022/05/25 03:33:14;;;;;;;12.95;10.90;;;;;;;15.81;96.36;98734.69;1727010;83;21058;-44
2022/05/25 03:35:40;;;;;;;18.27;12.23;;;;;;;15.82;96.27;98737.67;1725835;83;21073;-45
2022/05/25 03:38:06;;;;;;;16.75;13.38;;;;;;;15.82;96.76;98736.34;1729239;83;21109;-45
2022/05/25 03:40:33;;;;;;;12.90;11.48;;;;;;;15.88;96.01;98742.47;1722939;83;21531;-45
2022/05/25 03:42:59;;;;;;;17.83;12.43;;;;;;;15.89;95.94;98732.69;1708667;83;21038;-45
2022/05/25 03:45:25;;;;;;;18.48;13.70;;;;;;;15.92;95.45;98733.77;1717268;83;21090;-45
2022/05/25 03:47:52;;;;;;;16.82;13.40;;;;;;;15.94;96.86;98734.47;1716995;83;21101;-44
2022/05/25 03:50:19;;;;;;;17.70;15.10;;;;;;;15.95;96.93;98736.13;1725116;83;21594;-44
2022/05/25 03:52:47;;;;;;;19.92;14.98;;;;;;;15.95;98.10;98736.13;1713938;83;21574;-45
2022/05/25 03:55:13;;;;;;;16.52;14.30;;;;;;;15.98;96.88;98746.48;1713743;83;21054;-45
2022/05/25 03:57:39;;;;;;;19.48;14.98;;;;;;;15.99;96.88;98742.87;1729325;83;21064;-45
2022/05/25 04:00:07;;;;;;;20.05;13.20;;;;;;;16.01;96.62;98746.22;1721654;83;21046;-45
2022/05/25 04:02:34;;;;;;;17.05;14.43;;;;;;;15.98;96.34;98741.67;1709720;83;21061;-45
2022/05/25 04:05:08;;;;;;;16.85;14.18;;;;;;;15.95;96.89;98736.13;1729198;83;21532;-45
2022/05/25 04:07:37;;;;;;;15.88;13.28;;;;;;;15.99;96.24;98741.54;1729619;82;21139;-45
2022/05/25 04:10:05;;;;;;;17.17;12.98;;;;;;;15.96;97.46;98744.94;1723795;83;21070;-47
2022/05/25 04:12:33;;;;;;;15.43;13.13;;;;;;;15.95;96.77;98746.73;1728926;83;21532;-45
2022/05/25 04:15:00;;;;;;;16.93;11.88;;;;;;;16.00;96.10;98746.34;1730384;83;21062;-46
2022/05/25 04:17:26;;;;;;;17.25;13.13;;;;;;;16.01;95.58;98748.02;1730491;83;21046;-45
2022/05/25 04:19:51;;;;;;;16.30;11.68;;;;;;;15.93;96.60;98750.01;1727687;83;21647;-45
2022/05/25 04:22:18;;;;;;;15.03;11.93;;;;;;;15.97;95.85;98747.47;1723342;83;21109;-45
2022/05/25 04:24:44;;;;;;;15.28;12.15;;;;;;;16.00;95.63;98748.51;1720548;83;21067;-45
2022/05/25 04:27:10;;;;;;;12.73;10.68;;;;;;;15.99;95.84;98742.00;1715797;83;21041;-45
2022/05/25 04:29:37;;;;;;;13.80;11.05;;;;;;;15.93;95.68;98734.96;1713776;83;21049;-47
2022/05/25 04:32:04;;;;;;;14.03;10.32;;;;;;;15.96;94.95;98729.03;1727284;83;21544;-46
2022/05/25 04:34:30;;;;;;;11.48;10.28;;;;;;;15.97;94.85;98733.34;1726789;83;21106;-46
2022/05/25 04:37:48;;;;;;;14.70;10.08;;;;;;;15.96;94.72;98736.98;1717228;83;21547;-45
2022/05/25 04:39:23;;;;;;;14.58;9.98;;;;;;;15.91;94.79;98736.88;1724647;83;21047;-47
2022/05/25 04:41:49;;;;;;;11.97;9.73;;;;;;;15.91;94.48;98750.14;1729114;83;21059;-45
2022/05/25 04:44:15;;;;;;;10.32;9.25;;;;;;;15.93;94.67;98748.68;1720816;82;21195;-46
2022/05/25 04:46:43;;;;;;;13.30;9.43;;;;;;;15.94;93.96;98750.37;1704419;83;21818;-45
2022/05/25 04:49:09;;;;;;;14.15;9.33;;;;;;;16.01;93.97;98749.34;1710361;83;21063;-45
2022/05/25 04:51:35;;;;;;;10.23;8.65;;;;;;;16.05;93.68;98748.95;1728779;83;21043;-45
2022/05/25 04:54:00;;;;;;;14.87;9.48;;;;;;;16.09;93.11;98745.05;1705798;83;21030;-45
2022/05/25 04:58:56;;;;;;;10.13;8.15;;;;;;;16.12;92.79;98750.10;1666295;84;21130;-45
2022/05/25 05:01:22;;;;;;;8.73;7.22;;;;;;;16.10;92.14;98752.05;1726084;82;21504;-45
2022/05/25 05:03:49;;;;;;;10.40;7.90;;;;;;;16.15;91.71;98756.11;1715727;81;21503;-46
2022/05/25 05:06:15;;;;;;;10.98;7.87;;;;;;;16.09;91.77;98751.69;1695874;84;21134;-45
2022/05/25 05:08:41;;;;;;;10.45;7.50;;;;;;;16.10;91.53;98753.88;1701837;83;21058;-45
2022/05/25 05:11:16;;;;;;;10.80;7.60;;;;;;;16.18;91.58;98747.89;1717009;83;21066;-45
2022/05/25 05:13:42;;;;;;;10.40;8.08;;;;;;;16.24;91.21;98745.52;1730547;83;21054;-45
2022/05/25 05:16:14;;;;;;;10.85;8.08;;;;;;;16.30;90.76;98745.50;1697935;84;21052;-45
2022/05/25 05:18:42;;;;;;;9.25;7.20;;;;;;;16.35;90.85;98745.91;1705987;83;21048;-45
2022/05/25 05:21:09;;;;;;;;;;;;;;;16.40;90.38;98749.50;1687831;84;21105;-45
2022/05/25 05:23:38;;;;;;;11.57;7.67;;;;;;;16.35;90.28;98755.20;1695610;84;20480;-45
2022/05/25 05:26:05;;;;;;;13.38;7.92;;;;;;;16.33;89.84;98751.84;1705136;83;21082;-45
2022/05/25 05:28:34;;;;;;;11.70;8.05;;;;;;;16.34;89.51;98748.23;1713129;83;21601;-44
2022/05/25 05:31:02;;;;;;;14.85;8.45;;;;;;;16.43;89.50;98743.44;1725325;83;21038;-44
2022/05/25 05:33:30;;;;;;;11.57;7.85;;;;;;;16.44;89.68;98739.79;1716400;83;21014;-44
2022/05/25 05:36:07;;;;;;;10.60;7.87;;;;;;;16.37;88.82;98751.95;1707475;83;21065;-46
2022/05/25 05:38:37;;;;;;;8.28;7.33;;;;;;;16.39;88.64;98743.36;1729671;83;21130;-45
2022/05/25 05:41:03;;;;;;;12.60;7.70;;;;;;;16.43;88.38;98746.09;1725959;83;21555;-45
2022/05/25 05:43:30;;;;;;;9.45;6.92;;;;;;;16.42;88.20;98748.88;1694308;84;21079;-44
2022/05/25 05:45:56;;;;;;;22.15;8.23;;;;;;;16.41;87.81;98751.16;1690022;84;21029;-45
2022/05/25 05:48:27;;;;;;;11.00;8.03;;;;;;;16.40;87.09;98759.63;1692753;84;21000;-45
